Time;durP1;ratioP1;P1;durP2;ratioP2;P2;SDS_P1;SDS_P2;PMS_P1;PMS_P2;Temp;Humidity;BMP_temperature;BMP_pressure;BME280_temperature;BME280_humidity;BME280_pressure;Samples;Min_cycle;Max_cycle;Signal;HPM_P1;HPM_P2
2023/01/06 00:01:34;;;;;;;6.78;2.28;;;;;;;;;;5025080;28;20042;-92
2023/01/06 00:04:06;;;;;;;7.72;2.50;;;;;;;;;;5042482;28;20044;-92
2023/01/06 00:06:35;;;;;;;10.68;3.10;;;;;;;;;;5039596;28;20132;-91
2023/01/06 00:09:26;;;;;;;7.57;2.33;;;;;;;;;;5033613;28;20033;-91
2023/01/06 00:12:00;;;;;;;4.22;2.15;;;;;;;;;;5061619;28;20064;-92
2023/01/06 00:14:26;;;;;;;5.45;2.20;;;;;;;;;;5047557;28;20050;-91
2023/01/06 00:16:54;;;;;;;7.85;2.33;;;;;;;;;;5026567;28;20045;-91
2023/01/06 00:19:22;;;;;;;11.45;2.05;;;;;;;;;;5061947;28;20099;-92
2023/01/06 00:21:51;;;;;;;10.07;2.30;;;;;;;;;;5049045;28;20026;-91
2023/01/06 00:24:19;;;;;;;6.82;2.13;;;;;;;;;;5042943;28;20053;-91
2023/01/06 00:26:49;;;;;;;6.53;3.00;;;;;;;;;;5032554;28;20042;-91
2023/01/06 00:30:14;;;;;;;9.95;2.40;;;;;;;;;;5035845;28;20056;-91
2023/01/06 00:32:40;;;;;;;7.20;2.15;;;;;;;;;;5024734;28;20069;-92
2023/01/06 00:35:13;;;;;;;9.23;2.70;;;;;;;;;;5030769;28;20038;-92
2023/01/06 00:38:09;;;;;;;6.68;2.33;;;;;;;;;;5014203;28;20052;-91
2023/01/06 00:40:37;;;;;;;7.22;2.85;;;;;;;;;;5033801;28;20048;-92
2023/01/06 00:43:05;;;;;;;13.07;3.85;;;;;;;;;;5056204;28;20042;-91
2023/01/06 00:45:33;;;;;;;10.23;2.75;;;;;;;;;;5033375;28;20197;-92
2023/01/06 00:48:05;;;;;;;7.70;2.75;;;;;;;;;;5042602;28;20116;-92
2023/01/06 00:50:33;;;;;;;10.98;3.72;;;;;;;;;;5015709;28;20038;-92
2023/01/06 00:53:28;;;;;;;11.90;3.85;;;;;;;;;;5028476;28;20041;-91
2023/01/06 00:56:00;;;;;;;13.60;4.88;;;;;;;;;;5009753;28;20088;-93
2023/01/06 00:58:55;;;;;;;13.43;3.95;;;;;;;;;;5013470;28;20126;-92
2023/01/06 01:01:26;;;;;;;13.57;4.40;;;;;;;;;;5066548;28;20046;-91
2023/01/06 01:04:22;;;;;;;11.85;4.78;;;;;;;;;;5029305;28;20045;-91
2023/01/06 01:06:49;;;;;;;14.73;4.90;;;;;;;;;;5040534;28;20037;-92
2023/01/06 01:09:46;;;;;;;13.80;4.05;;;;;;;;;;5027905;28;20042;-91
2023/01/06 01:12:15;;;;;;;9.45;4.72;;;;;;;;;;5015788;28;20044;-91
2023/01/06 01:14:48;;;;;;;10.48;4.90;;;;;;;;;;5057522;28;20069;-91
2023/01/06 01:20:21;;;;;;;14.20;5.15;;;;;;;;;;5046786;28;20083;-91
2023/01/06 01:22:48;;;;;;;18.20;6.38;;;;;;;;;;5027106;28;20054;-92
2023/01/06 01:25:16;;;;;;;12.95;4.43;;;;;;;;;;5046906;28;20379;-91
2023/01/06 01:27:44;;;;;;;14.20;5.05;;;;;;;;;;5027422;28;20041;-92
2023/01/06 01:30:12;;;;;;;16.52;5.80;;;;;;;;;;5059801;28;20103;-91
2023/01/06 01:32:40;;;;;;;15.45;5.97;;;;;;;;;;5031708;28;20034;-91
2023/01/06 01:35:36;;;;;;;13.48;5.45;;;;;;;;;;5035101;28;20057;-91
2023/01/06 01:38:04;;;;;;;15.45;4.88;;;;;;;;;;5049495;28;20516;-91
2023/01/06 01:40:37;;;;;;;16.50;6.07;;;;;;;;;;5027990;28;20038;-92
2023/01/06 01:43:05;;;;;;;19.63;5.95;;;;;;;;;;5027763;28;20070;-92
2023/01/06 01:45:32;;;;;;;16.92;5.68;;;;;;;;;;5067749;28;20516;-92
2023/01/06 01:48:06;;;;;;;12.10;5.20;;;;;;;;;;5028331;28;20041;-91
2023/01/06 01:51:02;;;;;;;15.50;5.80;;;;;;;;;;5057408;28;20068;-91
2023/01/06 01:53:39;;;;;;;12.38;5.50;;;;;;;;;;5025136;28;20064;-91
2023/01/06 01:56:22;;;;;;;13.70;5.50;;;;;;;;;;5032717;28;20044;-91
2023/01/06 01:59:06;;;;;;;15.23;5.47;;;;;;;;;;5033177;28;20045;-91
2023/01/06 02:01:35;;;;;;;10.82;4.90;;;;;;;;;;5009099;28;20037;-91
2023/01/06 02:04:03;;;;;;;12.70;6.00;;;;;;;;;;5046748;28;20041;-91
2023/01/06 02:06:31;;;;;;;12.52;5.65;;;;;;;;;;5046644;28;20096;-90
2023/01/06 02:09:13;;;;;;;16.73;5.80;;;;;;;;;;5033463;28;20061;-92
2023/01/06 02:11:41;;;;;;;16.02;5.32;;;;;;;;;;5046744;28;20033;-92
2023/01/06 02:14:18;;;;;;;14.15;5.50;;;;;;;;;;5048253;28;20420;-91
2023/01/06 02:17:19;;;;;;;13.63;6.15;;;;;;;;;;5048481;28;20045;-92
2023/01/06 02:20:27;;;;;;;13.88;5.88;;;;;;;;;;5037986;28;20064;-91
2023/01/06 02:23:07;;;;;;;10.13;5.38;;;;;;;;;;5037249;28;20052;-91
2023/01/06 02:26:08;;;;;;;15.18;5.75;;;;;;;;;;5063941;28;20034;-91
2023/01/06 02:29:01;;;;;;;14.90;5.72;;;;;;;;;;5063080;28;20537;-91
2023/01/06 02:31:51;;;;;;;11.35;5.15;;;;;;;;;;5049278;28;20049;-92
2023/01/06 02:34:58;;;;;;;15.77;5.78;;;;;;;;;;5046484;28;20045;-92
2023/01/06 02:37:28;;;;;;;11.70;4.63;;;;;;;;;;5033935;28;20069;-91
2023/01/06 02:40:13;;;;;;;9.80;5.25;;;;;;;;;;5054007;28;20045;-91
2023/01/06 02:42:56;;;;;;;12.45;4.25;;;;;;;;;;5039528;28;20037;-91
2023/01/06 02:45:46;;;;;;;10.05;4.68;;;;;;;;;;5044750;28;20053;-92
2023/01/06 02:48:25;;;;;;;14.50;4.97;;;;;;;;;;5033040;28;20045;-91
2023/01/06 02:51:04;;;;;;;8.35;4.45;;;;;;;;;;5072422;28;20037;-92
2023/01/06 02:54:31;;;;;;;8.50;4.85;;;;;;;;;;5066312;28;20037;-91
2023/01/06 02:57:19;;;;;;;9.90;4.22;;;;;;;;;;4953047;28;20078;-92
2023/01/06 02:59:59;;;;;;;9.30;4.60;;;;;;;;;;4971854;28;20054;-91
2023/01/06 03:02:40;;;;;;;11.50;4.53;;;;;;;;;;4952538;28;20047;-91
2023/01/06 03:05:12;;;;;;;10.00;4.00;;;;;;;;;;4954346;28;20053;-92
2023/01/06 03:07:40;;;;;;;14.95;4.68;;;;;;;;;;4956452;28;20058;-91
2023/01/06 03:10:33;;;;;;;9.85;4.93;;;;;;;;;;4959325;28;20593;-91
2023/01/06 03:13:38;;;;;;;11.95;4.68;;;;;;;;;;4958305;28;20074;-92
2023/01/06 03:16:08;;;;;;;12.25;5.13;;;;;;;;;;4968435;28;20047;-92
2023/01/06 03:18:37;;;;;;;11.48;5.35;;;;;;;;;;4967392;28;20551;-91
2023/01/06 03:21:12;;;;;;;10.07;5.20;;;;;;;;;;4948164;28;20065;-91
2023/01/06 03:23:41;;;;;;;12.02;5.20;;;;;;;;;;4942485;28;20050;-91
2023/01/06 03:26:36;;;;;;;12.93;5.90;;;;;;;;;;4952114;28;20047;-92
2023/01/06 03:29:07;;;;;;;11.27;5.03;;;;;;;;;;4945472;28;20055;-92
2023/01/06 03:32:04;;;;;;;10.00;5.00;;;;;;;;;;4927879;28;20131;-91
2023/01/06 03:34:35;;;;;;;16.00;5.95;;;;;;;;;;5025483;28;20049;-91
2023/01/06 03:37:28;;;;;;;13.00;5.65;;;;;;;;;;5037051;28;20133;-91
2023/01/06 03:40:23;;;;;;;15.88;5.32;;;;;;;;;;5031744;28;20113;-92
2023/01/06 03:43:33;;;;;;;12.27;5.55;;;;;;;;;;5026120;28;20033;-91
2023/01/06 03:46:21;;;;;;;14.45;5.60;;;;;;;;;;5044948;28;20448;-91
2023/01/06 03:49:07;;;;;;;15.30;6.50;;;;;;;;;;5030419;28;20148;-92
2023/01/06 03:51:51;;;;;;;14.13;6.47;;;;;;;;;;5024150;28;20128;-91
2023/01/06 03:54:50;;;;;;;16.08;6.18;;;;;;;;;;5061159;28;20037;-92
2023/01/06 03:57:49;;;;;;;13.63;6.20;;;;;;;;;;5034122;28;20168;-92
2023/01/06 04:00:27;;;;;;;15.25;6.70;;;;;;;;;;4997069;28;20054;-91
2023/01/06 04:03:12;;;;;;;17.77;7.20;;;;;;;;;;5046286;28;20037;-91
2023/01/06 04:06:11;;;;;;;15.00;7.53;;;;;;;;;;5030289;28;20152;-91
2023/01/06 04:09:05;;;;;;;18.48;7.45;;;;;;;;;;5052979;28;20041;-91
2023/01/06 04:14:26;;;;;;;17.88;6.53;;;;;;;;;;5049311;28;20048;-92
2023/01/06 04:16:54;;;;;;;24.55;8.63;;;;;;;;;;5032807;28;20049;-91
2023/01/06 04:19:22;;;;;;;16.58;8.00;;;;;;;;;;5027766;28;20065;-92
2023/01/06 04:21:56;;;;;;;20.73;8.45;;;;;;;;;;5040278;28;20052;-92
2023/01/06 04:24:29;;;;;;;20.77;7.32;;;;;;;;;;5043153;28;20120;-92
2023/01/06 04:27:23;;;;;;;18.90;7.95;;;;;;;;;;5030910;28;21863;-91
2023/01/06 04:29:57;;;;;;;29.13;8.40;;;;;;;;;;5049755;28;20602;-91
2023/01/06 04:32:31;;;;;;;24.27;8.48;;;;;;;;;;5046262;28;20064;-92
2023/01/06 04:35:01;;;;;;;19.30;8.57;;;;;;;;;;5031607;28;20037;-91
2023/01/06 04:37:29;;;;;;;26.10;8.25;;;;;;;;;;5050109;28;20509;-92
2023/01/06 04:39:57;;;;;;;21.50;8.80;;;;;;;;;;5066833;28;20045;-91
2023/01/06 04:42:24;;;;;;;21.25;8.15;;;;;;;;;;5038063;28;20037;-92
2023/01/06 04:44:53;;;;;;;19.67;8.45;;;;;;;;;;5034161;28;20041;-92
2023/01/06 04:47:49;;;;;;;20.48;8.23;;;;;;;;;;5037786;28;20044;-91
2023/01/06 04:50:17;;;;;;;18.67;8.60;;;;;;;;;;5067474;28;20038;-92
2023/01/06 04:53:11;;;;;;;18.90;8.43;;;;;;;;;;5020059;28;20065;-91
2023/01/06 04:55:40;;;;;;;21.00;7.85;;;;;;;;;;5033483;28;20045;-91
2023/01/06 04:58:31;;;;;;;32.65;8.48;;;;;;;;;;5067896;28;20444;-92
2023/01/06 05:01:04;;;;;;;25.67;8.93;;;;;;;;;;5048975;28;20049;-92
2023/01/06 05:03:34;;;;;;;24.60;8.57;;;;;;;;;;5062645;28;20068;-92
2023/01/06 05:06:27;;;;;;;23.05;8.50;;;;;;;;;;5032566;28;20094;-92
2023/01/06 05:09:18;;;;;;;21.90;8.00;;;;;;;;;;5033135;28;20037;-92
2023/01/06 05:11:47;;;;;;;24.05;8.68;;;;;;;;;;5057021;28;20038;-92
2023/01/06 05:14:15;;;;;;;22.15;8.15;;;;;;;;;;5065031;28;20052;-92
2023/01/06 05:16:43;;;;;;;25.30;9.43;;;;;;;;;;5026219;28;20038;-91
2023/01/06 05:19:10;;;;;;;29.55;8.48;;;;;;;;;;5050307;28;20041;-92
2023/01/06 05:21:38;;;;;;;27.40;8.45;;;;;;;;;;5032082;28;20044;-92
2023/01/06 05:24:16;;;;;;;29.05;8.68;;;;;;;;;;5013614;28;20041;-92
2023/01/06 05:27:14;;;;;;;25.10;8.32;;;;;;;;;;5052983;28;20038;-91
2023/01/06 05:29:43;;;;;;;22.30;8.75;;;;;;;;;;5032687;28;20034;-91
2023/01/06 05:32:10;;;;;;;23.20;8.88;;;;;;;;;;5066337;28;20053;-92
2023/01/06 05:34:39;;;;;;;26.35;9.10;;;;;;;;;;5015834;28;20048;-92
2023/01/06 05:37:07;;;;;;;30.92;10.13;;;;;;;;;;5050898;28;20037;-91
2023/01/06 05:39:34;;;;;;;25.30;8.40;;;;;;;;;;5043638;28;20131;-92
2023/01/06 05:42:03;;;;;;;24.20;9.27;;;;;;;;;;5035569;28;20101;-91
2023/01/06 05:44:31;;;;;;;27.17;8.98;;;;;;;;;;5029175;28;20033;-92
2023/01/06 05:46:58;;;;;;;25.42;8.55;;;;;;;;;;5063707;28;20111;-92
2023/01/06 05:49:31;;;;;;;26.63;8.52;;;;;;;;;;5043532;28;20052;-92
2023/01/06 05:51:59;;;;;;;26.40;9.27;;;;;;;;;;5060751;28;20046;-92
2023/01/06 05:54:50;;;;;;;24.33;8.38;;;;;;;;;;5034601;28;20034;-91
2023/01/06 05:57:22;;;;;;;22.15;9.30;;;;;;;;;;5048358;28;20138;-91
2023/01/06 06:00:20;;;;;;;21.65;9.00;;;;;;;;;;5035675;28;20041;-90
2023/01/06 06:02:46;;;;;;;29.27;9.85;;;;;;;;;;5023690;28;20034;-91
2023/01/06 06:05:18;;;;;;;29.55;9.85;;;;;;;;;;5030322;28;20042;-91
2023/01/06 06:07:56;;;;;;;27.98;10.57;;;;;;;;;;5046523;28;20037;-91
2023/01/06 06:10:22;;;;;;;28.98;11.10;;;;;;;;;;5026203;28;20513;-91
2023/01/06 06:12:51;;;;;;;27.58;10.27;;;;;;;;;;5015220;28;20034;-91
2023/01/06 06:15:19;;;;;;;26.77;9.63;;;;;;;;;;5030909;28;20073;-90
2023/01/06 06:17:47;;;;;;;26.05;10.00;;;;;;;;;;5010070;28;20049;-91
2023/01/06 06:20:15;;;;;;;22.08;9.65;;;;;;;;;;5025483;28;20105;-91
2023/01/06 06:22:42;;;;;;;26.55;10.00;;;;;;;;;;5043617;28;20052;-90
2023/01/06 06:25:11;;;;;;;25.77;9.07;;;;;;;;;;5005877;28;20045;-91
2023/01/06 06:27:42;;;;;;;25.27;9.88;;;;;;;;;;5045905;28;20038;-90
2023/01/06 06:30:34;;;;;;;27.25;9.70;;;;;;;;;;5021785;28;20045;-90
2023/01/06 06:33:06;;;;;;;22.88;10.32;;;;;;;;;;5039986;28;20432;-91
2023/01/06 06:35:39;;;;;;;29.30;10.48;;;;;;;;;;5036846;28;20050;-90
2023/01/06 06:38:06;;;;;;;24.98;10.25;;;;;;;;;;5060591;28;20042;-91
2023/01/06 06:40:34;;;;;;;28.08;10.77;;;;;;;;;;5040178;28;20579;-90
2023/01/06 06:43:02;;;;;;;25.67;11.00;;;;;;;;;;5063986;28;20142;-91
2023/01/06 06:45:31;;;;;;;33.25;11.07;;;;;;;;;;5025888;28;20045;-91
2023/01/06 06:47:58;;;;;;;28.00;11.52;;;;;;;;;;5027458;28;20037;-91
2023/01/06 06:51:02;;;;;;;28.00;10.68;;;;;;;;;;5024049;28;20115;-91
2023/01/06 06:53:29;;;;;;;30.13;11.27;;;;;;;;;;5020036;28;20124;-91
2023/01/06 06:55:57;;;;;;;25.40;11.05;;;;;;;;;;5027607;28;20038;-90
2023/01/06 06:58:29;;;;;;;26.58;10.85;;;;;;;;;;5022142;28;20064;-89
2023/01/06 07:00:57;;;;;;;29.90;12.02;;;;;;;;;;5003876;28;20037;-90
2023/01/06 07:03:49;;;;;;;24.95;11.07;;;;;;;;;;5076121;28;20409;-90
2023/01/06 07:06:23;;;;;;;27.65;11.75;;;;;;;;;;5023792;28;20060;-90
2023/01/06 07:08:53;;;;;;;25.75;12.13;;;;;;;;;;5020005;28;20050;-90
2023/01/06 07:11:25;;;;;;;27.77;11.27;;;;;;;;;;5047184;28;20052;-90
2023/01/06 07:13:57;;;;;;;26.02;11.52;;;;;;;;;;5016567;28;20038;-90
2023/01/06 07:16:51;;;;;;;28.48;11.30;;;;;;;;;;5056381;28;20041;-90
2023/01/06 07:19:19;;;;;;;24.48;11.20;;;;;;;;;;5057869;28;20045;-90
2023/01/06 07:21:47;;;;;;;31.73;12.35;;;;;;;;;;5046318;28;20041;-90
2023/01/06 07:24:19;;;;;;;24.60;11.23;;;;;;;;;;5042948;28;20060;-90
2023/01/06 07:26:46;;;;;;;28.15;11.90;;;;;;;;;;5057732;28;20050;-90
2023/01/06 07:29:15;;;;;;;29.65;11.27;;;;;;;;;;5028771;28;20041;-90
2023/01/06 07:31:44;;;;;;;25.30;10.57;;;;;;;;;;5046758;28;20042;-90
2023/01/06 07:34:13;;;;;;;24.17;10.45;;;;;;;;;;5027305;28;20052;-89
2023/01/06 07:36:43;;;;;;;23.20;9.93;;;;;;;;;;5026427;28;20049;-90
2023/01/06 07:39:15;;;;;;;26.88;10.02;;;;;;;;;;5038164;28;20046;-90
2023/01/06 07:41:43;;;;;;;24.40;10.60;;;;;;;;;;5037149;28;20073;-90
2023/01/06 07:44:35;;;;;;;21.70;10.52;;;;;;;;;;5041069;28;20034;-91
2023/01/06 07:47:03;;;;;;;22.42;9.23;;;;;;;;;;5032001;28;20041;-91
2023/01/06 07:49:34;;;;;;;24.75;10.18;;;;;;;;;;5052935;28;20517;-91
2023/01/06 07:52:03;;;;;;;20.27;9.80;;;;;;;;;;5023825;28;20064;-90
2023/01/06 07:54:31;;;;;;;23.23;11.00;;;;;;;;;;5024360;28;20049;-90
2023/01/06 07:56:59;;;;;;;26.17;10.35;;;;;;;;;;5026441;28;20046;-91
2023/01/06 07:59:33;;;;;;;22.48;9.85;;;;;;;;;;5023597;28;20075;-91
2023/01/06 08:02:10;;;;;;;24.02;9.65;;;;;;;;;;5032702;28;20038;-90
2023/01/06 08:04:41;;;;;;;21.88;9.80;;;;;;;;;;5054661;28;20035;-90
2023/01/06 08:07:09;;;;;;;19.33;9.48;;;;;;;;;;5036634;28;20049;-90
2023/01/06 08:09:39;;;;;;;23.08;10.10;;;;;;;;;;5053766;28;20050;-90
2023/01/06 08:12:07;;;;;;;23.48;9.73;;;;;;;;;;5011110;28;20041;-90
2023/01/06 08:14:41;;;;;;;21.98;9.05;;;;;;;;;;5046793;28;20050;-90
2023/01/06 08:17:09;;;;;;;22.63;10.68;;;;;;;;;;5070443;28;20041;-89
2023/01/06 08:19:37;;;;;;;20.05;9.18;;;;;;;;;;5037530;28;20039;-90
2023/01/06 08:22:09;;;;;;;23.52;10.18;;;;;;;;;;5060226;28;20116;-90
2023/01/06 08:24:36;;;;;;;17.05;9.32;;;;;;;;;;5045470;28;20040;-91
2023/01/06 08:27:09;;;;;;;21.25;9.27;;;;;;;;;;5032474;28;20064;-90
2023/01/06 08:29:37;;;;;;;18.42;9.65;;;;;;;;;;5040005;28;20037;-90
2023/01/06 08:32:05;;;;;;;20.10;9.80;;;;;;;;;;5055245;28;20045;-90
2023/01/06 08:34:39;;;;;;;16.95;8.82;;;;;;;;;;5028607;28;20033;-90
2023/01/06 08:37:13;;;;;;;17.25;8.77;;;;;;;;;;5035327;28;20037;-90
2023/01/06 08:39:41;;;;;;;17.50;9.35;;;;;;;;;;5038016;28;20037;-91
2023/01/06 08:42:09;;;;;;;18.88;8.98;;;;;;;;;;5013598;28;20049;-89
2023/01/06 08:44:41;;;;;;;19.77;8.70;;;;;;;;;;5024360;28;20029;-89
2023/01/06 08:47:11;;;;;;;20.95;9.00;;;;;;;;;;5012662;28;20041;-89
2023/01/06 08:49:39;;;;;;;18.63;7.95;;;;;;;;;;5034651;28;20052;-89
2023/01/06 08:52:07;;;;;;;16.67;8.27;;;;;;;;;;5043835;28;20041;-90
2023/01/06 08:54:35;;;;;;;18.92;8.13;;;;;;;;;;5011310;28;20042;-90
2023/01/06 08:57:03;;;;;;;17.08;8.15;;;;;;;;;;5028579;28;20045;-90
2023/01/06 08:59:31;;;;;;;18.02;7.72;;;;;;;;;;5028818;28;20049;-90
2023/01/06 09:02:30;;;;;;;13.50;7.57;;;;;;;;;;5025773;28;20046;-89
2023/01/06 09:04:57;;;;;;;13.35;7.22;;;;;;;;;;5029466;28;20049;-89
2023/01/06 09:07:25;;;;;;;12.38;6.97;;;;;;;;;;5060206;28;20040;-90
2023/01/06 09:10:18;;;;;;;14.77;6.65;;;;;;;;;;5030942;28;20037;-90
2023/01/06 09:12:51;;;;;;;13.48;7.47;;;;;;;;;;5000058;28;20041;-90
2023/01/06 09:15:18;;;;;;;18.17;7.97;;;;;;;;;;5022859;28;20037;-90
2023/01/06 09:17:54;;;;;;;15.10;7.68;;;;;;;;;;5028873;28;20109;-89
2023/01/06 09:20:21;;;;;;;11.60;6.53;;;;;;;;;;5029860;28;20037;-91
2023/01/06 09:22:49;;;;;;;11.57;6.57;;;;;;;;;;5007897;28;20045;-91
2023/01/06 09:25:19;;;;;;;11.32;7.60;;;;;;;;;;5043681;28;20064;-91
2023/01/06 09:27:47;;;;;;;12.07;6.88;;;;;;;;;;5018273;28;20048;-91
2023/01/06 09:30:15;;;;;;;15.25;6.95;;;;;;;;;;5034406;28;20049;-91
2023/01/06 09:32:43;;;;;;;12.32;6.53;;;;;;;;;;5045918;28;20077;-91
2023/01/06 09:35:11;;;;;;;11.93;5.97;;;;;;;;;;5064373;28;20116;-91
2023/01/06 09:37:39;;;;;;;9.18;5.85;;;;;;;;;;5004826;28;20533;-90
2023/01/06 09:40:14;;;;;;;11.85;6.15;;;;;;;;;;5023982;28;20030;-90
2023/01/06 09:42:58;;;;;;;13.20;5.88;;;;;;;;;;5012065;28;20054;-90
2023/01/06 09:45:34;;;;;;;12.27;6.55;;;;;;;;;;5020881;28;20053;-90
2023/01/06 09:48:17;;;;;;;9.75;5.65;;;;;;;;;;5029623;28;20033;-90
2023/01/06 09:50:53;;;;;;;9.38;5.63;;;;;;;;;;5024443;28;20048;-90
2023/01/06 09:53:29;;;;;;;9.63;5.75;;;;;;;;;;5039394;28;20448;-90
2023/01/06 09:56:23;;;;;;;11.35;5.13;;;;;;;;;;5051007;28;20097;-90
2023/01/06 09:59:03;;;;;;;9.88;4.70;;;;;;;;;;5068691;28;20045;-90
2023/01/06 10:01:58;;;;;;;10.20;5.43;;;;;;;;;;5040320;28;20072;-89
2023/01/06 10:04:29;;;;;;;7.68;4.50;;;;;;;;;;5033040;28;20035;-90
2023/01/06 10:07:17;;;;;;;9.23;4.50;;;;;;;;;;5025754;28;20371;-90
2023/01/06 10:10:32;;;;;;;8.77;4.53;;;;;;;;;;5023357;28;20525;-90
2023/01/06 10:13:20;;;;;;;9.27;4.15;;;;;;;;;;5024064;28;20084;-90
2023/01/06 10:16:04;;;;;;;7.93;4.50;;;;;;;;;;5021142;28;20382;-90
2023/01/06 10:18:56;;;;;;;7.50;4.18;;;;;;;;;;5044374;28;20068;-90
2023/01/06 10:21:24;;;;;;;6.65;4.25;;;;;;;;;;5011084;28;20025;-90
2023/01/06 10:24:46;;;;;;;5.95;3.90;;;;;;;;;;5041448;28;20026;-90
2023/01/06 10:27:28;;;;;;;7.68;4.10;;;;;;;;;;5012919;28;20057;-90
2023/01/06 10:29:58;;;;;;;10.80;3.88;;;;;;;;;;5027573;28;20038;-89
2023/01/06 10:32:35;;;;;;;5.97;3.85;;;;;;;;;;5028937;28;20054;-90
2023/01/06 10:35:13;;;;;;;9.25;3.70;;;;;;;;;;5044966;28;20539;-90
2023/01/06 10:37:44;;;;;;;6.63;4.28;;;;;;;;;;5056553;28;20042;-90
2023/01/06 10:40:25;;;;;;;9.02;4.05;;;;;;;;;;5040521;28;20042;-90
2023/01/06 10:43:02;;;;;;;11.00;3.90;;;;;;;;;;5042276;28;20116;-90
2023/01/06 10:45:45;;;;;;;7.32;3.83;;;;;;;;;;5028788;28;20040;-90
2023/01/06 10:49:02;;;;;;;6.53;4.00;;;;;;;;;;5051274;28;20030;-90
2023/01/06 10:51:38;;;;;;;7.80;3.70;;;;;;;;;;5032985;28;20097;-90
2023/01/06 10:54:32;;;;;;;10.00;3.97;;;;;;;;;;5022671;28;20125;-90
2023/01/06 10:57:10;;;;;;;8.57;4.32;;;;;;;;;;5037601;28;20038;-90
2023/01/06 11:00:08;;;;;;;6.20;3.53;;;;;;;;;;5020742;28;20041;-90
2023/01/06 11:02:35;;;;;;;7.20;4.05;;;;;;;;;;5027645;28;20080;-91
2023/01/06 11:05:03;;;;;;;9.65;4.10;;;;;;;;;;5031371;28;20124;-90
2023/01/06 11:07:32;;;;;;;6.63;3.72;;;;;;;;;;5029026;28;20037;-90
2023/01/06 11:09:59;;;;;;;7.03;4.00;;;;;;;;;;5011428;28;20134;-90
2023/01/06 11:12:28;;;;;;;7.28;3.80;;;;;;;;;;5049135;28;20058;-90
2023/01/06 11:14:59;;;;;;;7.03;3.85;;;;;;;;;;5062441;28;20041;-90
2023/01/06 11:17:28;;;;;;;7.30;3.63;;;;;;;;;;5035627;28;20042;-90
2023/01/06 11:20:23;;;;;;;5.53;3.83;;;;;;;;;;5032857;28;20110;-90
2023/01/06 11:22:51;;;;;;;7.00;3.55;;;;;;;;;;5006278;28;20042;-90
2023/01/06 11:25:18;;;;;;;5.45;3.03;;;;;;;;;;5024229;28;20034;-90
2023/01/06 11:28:08;;;;;;;6.43;2.38;;;;;;;;;;5035664;28;20046;-90
2023/01/06 11:30:51;;;;;;;6.47;2.28;;;;;;;;;;5028595;28;20059;-90
2023/01/06 11:33:22;;;;;;;3.85;1.75;;;;;;;;;;5040680;28;20050;-91
2023/01/06 11:35:50;;;;;;;2.38;1.23;;;;;;;;;;5030031;28;20048;-90
2023/01/06 11:38:18;;;;;;;2.45;1.15;;;;;;;;;;5051458;28;20049;-90
2023/01/06 11:40:49;;;;;;;2.90;1.02;;;;;;;;;;5060029;28;20108;-90
2023/01/06 11:43:29;;;;;;;2.38;0.98;;;;;;;;;;5048801;28;20089;-90
2023/01/06 11:46:05;;;;;;;3.58;1.10;;;;;;;;;;5070001;28;20072;-90
2023/01/06 11:48:41;;;;;;;3.78;0.70;;;;;;;;;;5032001;28;20073;-91
2023/01/06 11:51:09;;;;;;;3.05;0.60;;;;;;;;;;5045964;28;20056;-90
2023/01/06 11:53:38;;;;;;;6.22;0.70;;;;;;;;;;5035705;28;20483;-89
2023/01/06 11:56:31;;;;;;;5.10;0.82;;;;;;;;;;5037191;28;20097;-90
2023/01/06 11:59:11;;;;;;;3.70;1.10;;;;;;;;;;5048892;28;20048;-90
2023/01/06 12:02:03;;;;;;;2.60;0.93;;;;;;;;;;5036532;28;20094;-90
2023/01/06 12:04:41;;;;;;;3.03;1.10;;;;;;;;;;5038983;28;20041;-90
2023/01/06 12:07:45;;;;;;;2.10;0.80;;;;;;;;;;5056372;28;20045;-90
2023/01/06 12:10:27;;;;;;;2.78;0.70;;;;;;;;;;5068289;28;20038;-90
2023/01/06 12:12:55;;;;;;;2.05;0.73;;;;;;;;;;5033567;28;20053;-90
2023/01/06 12:15:26;;;;;;;4.93;1.05;;;;;;;;;;5030526;28;20046;-90
2023/01/06 12:18:27;;;;;;;3.22;0.75;;;;;;;;;;5040372;28;20045;-90
2023/01/06 12:20:59;;;;;;;1.92;0.90;;;;;;;;;;4998922;28;20113;-90
2023/01/06 12:23:55;;;;;;;4.10;0.90;;;;;;;;;;5035191;28;20637;-90
2023/01/06 12:26:48;;;;;;;5.93;0.90;;;;;;;;;;5044471;28;20040;-90
2023/01/06 12:29:18;;;;;;;7.97;0.70;;;;;;;;;;5049938;28;20061;-90
2023/01/06 12:31:56;;;;;;;3.60;0.68;;;;;;;;;;5036214;28;20049;-90
2023/01/06 12:34:46;;;;;;;6.25;1.00;;;;;;;;;;5005388;28;20045;-90
2023/01/06 12:37:24;;;;;;;2.95;0.50;;;;;;;;;;5062667;28;20168;-90
2023/01/06 12:43:11;;;;;;;3.13;0.73;;;;;;;;;;5053231;28;20129;-90
2023/01/06 12:45:51;;;;;;;4.38;0.73;;;;;;;;;;5018440;28;20042;-90
2023/01/06 12:48:58;;;;;;;6.03;1.48;;;;;;;;;;5048247;28;20049;-89
2023/01/06 12:51:40;;;;;;;7.10;0.95;;;;;;;;;;5048394;28;20569;-90
2023/01/06 12:54:28;;;;;;;4.88;0.85;;;;;;;;;;5032785;28;20145;-89
2023/01/06 12:57:13;;;;;;;5.65;1.00;;;;;;;;;;5049002;28;20050;-90
2023/01/06 13:00:05;;;;;;;5.63;1.30;;;;;;;;;;5014436;28;20462;-89
2023/01/06 13:03:01;;;;;;;7.78;1.77;;;;;;;;;;5037417;28;20095;-90
2023/01/06 13:05:45;;;;;;;5.07;1.42;;;;;;;;;;5053502;28;20449;-90
2023/01/06 13:08:53;;;;;;;7.32;2.08;;;;;;;;;;5045747;28;20049;-90
2023/01/06 13:11:56;;;;;;;5.85;1.25;;;;;;;;;;5024287;28;20060;-89
2023/01/06 13:14:44;;;;;;;5.03;1.70;;;;;;;;;;5020596;28;20049;-90
2023/01/06 13:17:45;;;;;;;3.83;1.13;;;;;;;;;;5017508;28;20124;-89
2023/01/06 13:20:27;;;;;;;17.27;1.55;;;;;;;;;;5054471;28;20045;-90
2023/01/06 13:23:23;;;;;;;6.80;1.23;;;;;;;;;;5061708;28;20057;-89
2023/01/06 13:26:11;;;;;;;7.10;1.48;;;;;;;;;;5053124;28;20105;-90
2023/01/06 13:29:02;;;;;;;5.95;1.15;;;;;;;;;;5047370;28;20064;-90
2023/01/06 13:31:45;;;;;;;5.22;1.30;;;;;;;;;;5022701;28;20054;-90
2023/01/06 13:34:31;;;;;;;3.72;1.30;;;;;;;;;;5026953;28;20569;-89
2023/01/06 13:37:33;;;;;;;10.57;1.85;;;;;;;;;;5043879;28;20124;-89
2023/01/06 13:40:15;;;;;;;5.13;1.45;;;;;;;;;;5058395;28;20033;-90
2023/01/06 13:43:15;;;;;;;3.58;0.80;;;;;;;;;;5059060;28;20042;-90
2023/01/06 13:45:47;;;;;;;6.30;1.48;;;;;;;;;;5041238;28;20025;-90
2023/01/06 13:51:16;;;;;;;6.15;1.20;;;;;;;;;;5066652;28;20030;-90
2023/01/06 13:53:45;;;;;;;13.27;1.20;;;;;;;;;;5072704;28;20042;-90
2023/01/06 13:56:12;;;;;;;7.13;1.30;;;;;;;;;;5030392;28;20046;-90
2023/01/06 13:58:45;;;;;;;5.32;0.95;;;;;;;;;;4992740;28;20076;-90
2023/01/06 14:01:19;;;;;;;7.40;1.13;;;;;;;;;;5033941;28;20614;-90
2023/01/06 14:03:49;;;;;;;5.93;0.88;;;;;;;;;;5064345;28;20070;-90
2023/01/06 14:06:22;;;;;;;5.20;1.30;;;;;;;;;;5042472;28;20038;-90
2023/01/06 14:08:55;;;;;;;8.10;1.42;;;;;;;;;;5032768;28;20046;-91
2023/01/06 14:11:49;;;;;;;3.42;0.90;;;;;;;;;;5052911;28;20109;-92
2023/01/06 14:14:27;;;;;;;7.05;1.00;;;;;;;;;;5017606;28;20050;-92
2023/01/06 14:17:40;;;;;;;6.30;1.23;;;;;;;;;;5052039;28;20044;-91
2023/01/06 14:20:33;;;;;;;4.15;1.08;;;;;;;;;;5021632;28;20046;-89
2023/01/06 14:23:04;;;;;;;6.50;0.95;;;;;;;;;;5044034;28;20404;-89
2023/01/06 14:25:40;;;;;;;6.88;1.20;;;;;;;;;;5014526;28;20065;-89
2023/01/06 14:28:18;;;;;;;8.68;1.42;;;;;;;;;;5042471;28;20045;-89
2023/01/06 14:30:46;;;;;;;5.03;1.52;;;;;;;;;;5064394;28;20114;-89
2023/01/06 14:33:43;;;;;;;7.28;1.50;;;;;;;;;;5017226;28;20045;-89
2023/01/06 14:36:37;;;;;;;3.88;1.05;;;;;;;;;;5035361;28;20034;-89
2023/01/06 14:39:19;;;;;;;7.07;1.10;;;;;;;;;;5065445;28;20080;-89
2023/01/06 14:41:54;;;;;;;8.48;1.23;;;;;;;;;;5013111;28;20041;-89
2023/01/06 14:44:39;;;;;;;5.72;1.30;;;;;;;;;;5043942;28;20034;-89
2023/01/06 14:47:17;;;;;;;2.90;1.05;;;;;;;;;;5027229;28;20169;-89
2023/01/06 14:50:06;;;;;;;2.55;0.85;;;;;;;;;;5045996;28;20050;-89
2023/01/06 14:52:49;;;;;;;3.88;1.15;;;;;;;;;;5039169;28;20046;-89
2023/01/06 14:55:19;;;;;;;7.63;1.40;;;;;;;;;;5059928;28;20049;-89
2023/01/06 14:57:53;;;;;;;6.03;1.08;;;;;;;;;;5036376;28;20087;-88
2023/01/06 15:00:28;;;;;;;8.68;1.60;;;;;;;;;;5014750;28;20042;-89
2023/01/06 15:02:59;;;;;;;4.18;1.25;;;;;;;;;;5043341;28;20486;-89
2023/01/06 15:05:38;;;;;;;5.90;1.35;;;;;;;;;;5046479;28;20089;-89
2023/01/06 15:08:10;;;;;;;4.32;1.00;;;;;;;;;;5000565;28;20050;-90
2023/01/06 15:10:39;;;;;;;5.47;1.20;;;;;;;;;;5047260;28;20421;-90
2023/01/06 15:13:28;;;;;;;5.13;1.02;;;;;;;;;;5020122;28;20050;-90
2023/01/06 15:16:07;;;;;;;6.25;1.23;;;;;;;;;;5024502;28;20468;-89
2023/01/06 15:18:40;;;;;;;7.00;1.17;;;;;;;;;;5033261;28;20042;-89
2023/01/06 15:21:09;;;;;;;8.27;1.35;;;;;;;;;;5030284;28;20166;-89
2023/01/06 15:23:44;;;;;;;7.10;1.20;;;;;;;;;;5019354;28;20046;-89
2023/01/06 15:26:26;;;;;;;4.63;1.75;;;;;;;;;;5038761;28;20125;-90
2023/01/06 15:29:05;;;;;;;6.15;1.00;;;;;;;;;;5023453;28;20040;-89
2023/01/06 15:31:35;;;;;;;4.53;0.95;;;;;;;;;;5022171;28;20054;-89
2023/01/06 15:34:22;;;;;;;7.32;1.38;;;;;;;;;;5027412;28;20037;-89
2023/01/06 15:36:53;;;;;;;5.13;0.90;;;;;;;;;;5024903;28;20038;-89
2023/01/06 15:39:27;;;;;;;5.30;1.00;;;;;;;;;;5046589;28;20083;-89
2023/01/06 15:41:56;;;;;;;6.18;0.93;;;;;;;;;;5064427;28;20033;-89
2023/01/06 15:44:26;;;;;;;6.10;1.27;;;;;;;;;;5060556;28;20038;-89
2023/01/06 15:47:10;;;;;;;6.68;1.30;;;;;;;;;;5056305;28;20046;-89
2023/01/06 15:49:49;;;;;;;7.28;1.17;;;;;;;;;;5065107;28;20042;-89